Time;durP1;ratioP1;P1;durP2;ratioP2;P2;SDS_P1;SDS_P2;PMS_P1;PMS_P2;Temp;Humidity;BMP_temperature;BMP_pressure;BME280_temperature;BME280_humidity;BME280_pressure;Samples;Min_cycle;Max_cycle;Signal;HPM_P1;HPM_P2
2021/04/18 00:02:07;;;;;;;66.65;32.70;;;;;;;6.52;84.87;99089.02;2142787;83;21299;-83
2021/04/18 00:05:09;;;;;;;61.37;32.75;;;;;;;6.51;85.13;99088.19;2142785;83;21303;-83
2021/04/18 00:08:11;;;;;;;61.30;32.05;;;;;;;6.61;85.36;99089.92;2142904;83;21315;-83
2021/04/18 00:11:13;;;;;;;72.08;35.13;;;;;;;6.66;84.97;99089.81;2142699;83;21338;-83
2021/04/18 00:14:14;;;;;;;72.27;34.83;;;;;;;6.66;85.03;99092.89;2142897;83;21177;-83
2021/04/18 00:17:16;;;;;;;60.40;32.38;;;;;;;6.69;85.10;99088.72;2142741;83;21591;-82
2021/04/18 00:20:19;;;;;;;59.53;30.62;;;;;;;6.73;84.92;99092.66;2143033;83;21185;-82
2021/04/18 00:23:21;;;;;;;63.00;32.85;;;;;;;6.68;84.78;99087.91;2142574;83;21764;-82
2021/04/18 00:26:23;;;;;;;58.28;31.48;;;;;;;6.73;85.03;99088.27;2156011;81;21200;-83
2021/04/18 00:29:25;;;;;;;61.90;32.88;;;;;;;6.68;84.75;99087.91;2168141;82;21177;-83
2021/04/18 00:32:26;;;;;;;58.35;31.82;;;;;;;6.68;84.82;99089.69;2168201;82;21189;-84
2021/04/18 00:35:28;;;;;;;55.78;30.12;;;;;;;6.67;84.88;99084.13;2168394;82;21177;-82
2021/04/18 00:38:30;;;;;;;62.55;32.50;;;;;;;6.65;84.75;99082.16;2168489;82;21171;-82
2021/04/18 00:41:33;;;;;;;64.42;36.33;;;;;;;6.57;84.82;99075.07;2168332;82;21375;-83
2021/04/18 00:44:35;;;;;;;70.10;36.35;;;;;;;6.49;84.80;99075.82;2145119;83;21172;-84
2021/04/18 00:47:37;;;;;;;71.40;35.30;;;;;;;6.46;84.95;99075.27;2145457;83;21319;-84
2021/04/18 00:50:38;;;;;;;62.27;29.70;;;;;;;6.42;84.96;99068.25;2145278;83;21184;-83
2021/04/18 00:53:40;;;;;;;56.33;29.18;;;;;;;6.39;85.08;99069.81;2168381;82;21167;-85
2021/04/18 00:56:42;;;;;;;50.45;27.87;;;;;;;6.34;84.99;99072.53;2168153;82;21138;-84
2021/04/18 00:59:44;;;;;;;48.85;26.57;;;;;;;6.28;85.18;99070.01;2168453;82;21158;-85
2021/04/18 01:02:46;;;;;;;51.68;28.80;;;;;;;6.24;85.10;99071.27;2168423;82;21137;-83
2021/04/18 01:05:48;;;;;;;57.88;29.40;;;;;;;6.17;85.16;99061.09;2145066;83;21684;-82
2021/04/18 01:08:50;;;;;;;56.05;30.02;;;;;;;6.14;85.37;99069.19;2145289;83;21169;-84
2021/04/18 01:11:52;;;;;;;55.00;28.87;;;;;;;6.11;85.35;99066.38;2145371;83;21145;-85
2021/04/18 01:14:53;;;;;;;71.25;32.53;;;;;;;6.08;85.50;99070.57;2145117;83;21137;-84
2021/04/18 01:17:55;;;;;;;62.65;28.87;;;;;;;6.03;85.53;99068.86;2168417;82;21171;-83
2021/04/18 01:20:57;;;;;;;54.85;28.60;;;;;;;5.98;85.52;99066.70;2168511;82;21233;-83
2021/04/18 01:23:59;;;;;;;50.03;25.90;;;;;;;6.02;85.84;99067.70;2168414;82;21181;-83
2021/04/18 01:27:03;;;;;;;47.48;26.48;;;;;;;5.95;85.66;99065.70;2168455;81;21517;-82
2021/04/18 01:30:04;;;;;;;53.65;28.20;;;;;;;5.96;85.88;99067.81;2168227;82;21141;-83
2021/04/18 01:33:06;;;;;;;47.08;25.25;;;;;;;5.90;85.92;99071.78;2168111;82;21148;-84
2021/04/18 01:36:07;;;;;;;51.23;28.12;;;;;;;5.93;86.16;99066.30;2168124;82;21275;-84
2021/04/18 01:39:09;;;;;;;51.02;26.97;;;;;;;5.93;86.02;99066.78;2168035;82;21598;-84
2021/04/18 01:42:11;;;;;;;47.45;24.25;;;;;;;6.01;86.22;99066.89;2168438;82;21183;-83
2021/04/18 01:45:13;;;;;;;47.55;26.42;;;;;;;6.07;86.11;99065.03;2168470;82;21192;-83
2021/04/18 01:48:15;;;;;;;49.33;27.67;;;;;;;6.10;86.20;99067.34;2168126;82;21166;-84
2021/04/18 01:51:17;;;;;;;52.17;27.32;;;;;;;6.09;86.02;99071.38;2168248;82;21615;-84
2021/04/18 01:54:19;;;;;;;43.02;24.57;;;;;;;6.12;86.06;99073.21;2145205;83;21193;-83
2021/04/18 01:57:22;;;;;;;48.65;26.45;;;;;;;6.11;86.03;99066.38;2145232;83;21137;-85
2021/04/18 02:00:23;;;;;;;48.17;26.70;;;;;;;6.10;86.08;99063.92;2145233;83;21173;-84
2021/04/18 02:03:25;;;;;;;52.05;26.75;;;;;;;6.18;86.21;99060.95;2145259;83;21180;-83
2021/04/18 02:06:26;;;;;;;53.05;26.77;;;;;;;6.24;86.17;99068.19;2145257;83;21181;-83
2021/04/18 02:09:30;;;;;;;54.10;29.15;;;;;;;6.23;85.91;99057.45;2145255;83;21172;-83
2021/04/18 02:12:31;;;;;;;57.58;30.68;;;;;;;6.32;86.16;99060.97;2145468;83;21307;-84
2021/04/18 02:15:33;;;;;;;57.03;31.12;;;;;;;6.40;86.26;99057.17;2145522;83;21185;-84
2021/04/18 02:18:34;;;;;;;45.50;25.08;;;;;;;6.51;86.08;99056.16;2145431;83;21153;-83
2021/04/18 02:21:36;;;;;;;49.27;27.70;;;;;;;6.50;85.45;99051.92;2145511;83;21347;-83
2021/04/18 02:24:38;;;;;;;43.35;24.75;;;;;;;6.38;85.42;99052.58;2145550;83;21327;-84
2021/04/18 02:27:40;;;;;;;45.38;27.40;;;;;;;6.28;85.55;99046.60;2143371;83;21169;-84
2021/04/18 02:30:42;;;;;;;44.10;25.55;;;;;;;6.32;85.93;99041.47;2142726;83;21494;-84
2021/04/18 02:33:44;;;;;;;50.03;27.75;;;;;;;6.35;85.83;99047.67;2142988;83;21148;-83
2021/04/18 02:36:46;;;;;;;38.55;22.20;;;;;;;6.31;85.71;99049.39;2143002;83;21161;-83
2021/04/18 02:39:48;;;;;;;57.62;31.05;;;;;;;6.21;85.53;99046.35;2142865;83;21303;-83
2021/04/18 02:42:49;;;;;;;49.77;28.27;;;;;;;6.15;85.79;99046.95;2142664;83;21160;-84
2021/04/18 02:45:52;;;;;;;49.53;29.98;;;;;;;6.13;85.74;99045.45;2142829;83;21333;-83
2021/04/18 02:48:53;;;;;;;43.42;26.05;;;;;;;6.05;85.71;99038.37;2142980;83;21141;-83
2021/04/18 02:51:55;;;;;;;48.63;28.02;;;;;;;6.06;85.96;99036.58;2142801;83;21165;-84
2021/04/18 02:54:57;;;;;;;50.20;28.50;;;;;;;6.08;86.20;99035.47;2142634;83;21153;-84
2021/04/18 02:57:58;;;;;;;53.92;28.40;;;;;;;6.14;86.06;99028.89;2142953;83;21183;-83
2021/04/18 03:01:00;;;;;;;46.73;25.75;;;;;;;6.19;86.12;99025.36;2142573;83;21339;-85
2021/04/18 03:04:02;;;;;;;43.80;26.20;;;;;;;6.27;86.09;99028.88;2142821;83;21291;-84
2021/04/18 03:07:04;;;;;;;47.85;26.73;;;;;;;6.36;86.10;99028.98;2142864;83;21166;-84
2021/04/18 03:10:06;;;;;;;46.88;27.52;;;;;;;6.34;85.73;99025.23;2142497;83;21309;-83
2021/04/18 03:13:08;;;;;;;50.67;28.15;;;;;;;6.41;85.97;99023.70;2142626;83;21311;-83
2021/04/18 03:16:10;;;;;;;52.70;30.52;;;;;;;6.49;85.93;99023.79;2142860;83;21166;-84
2021/04/18 03:19:12;;;;;;;49.48;29.20;;;;;;;6.56;85.87;99023.52;2142771;83;21158;-84
2021/04/18 03:22:14;;;;;;;51.88;27.65;;;;;;;6.66;85.70;99023.45;2142961;83;21162;-84
2021/04/18 03:25:16;;;;;;;57.93;28.40;;;;;;;6.68;85.55;99025.94;2142942;83;21178;-84
2021/04/18 03:28:17;;;;;;;54.33;28.83;;;;;;;6.69;85.55;99021.88;2145043;83;21303;-84
2021/04/18 03:31:19;;;;;;;59.13;31.00;;;;;;;6.71;85.46;99023.03;2145177;83;21145;-84
2021/04/18 03:34:22;;;;;;;57.50;29.70;;;;;;;6.65;85.19;99020.52;2145537;83;21306;-84
2021/04/18 03:37:24;;;;;;;36.20;22.22;;;;;;;6.62;85.12;99022.12;2145367;83;22307;-84
2021/04/18 03:40:26;;;;;;;41.30;24.57;;;;;;;6.44;84.83;99021.27;2168516;82;21128;-84
2021/04/18 03:43:27;;;;;;;40.28;24.40;;;;;;;6.26;84.99;99025.13;2168559;82;21154;-83
2021/04/18 03:46:29;;;;;;;39.83;23.92;;;;;;;6.21;85.40;99026.84;2168267;82;21186;-85
2021/04/18 03:49:31;;;;;;;51.70;28.32;;;;;;;6.09;85.33;99028.01;2168503;82;21159;-84
2021/04/18 03:52:33;;;;;;;47.80;26.33;;;;;;;6.06;85.73;99029.60;2168288;82;21144;-84
2021/04/18 03:55:35;;;;;;;49.85;27.30;;;;;;;6.06;85.75;99021.80;2168480;82;21613;-83
2021/04/18 03:58:37;;;;;;;42.25;23.90;;;;;;;6.12;85.75;99022.51;2168260;82;21196;-85
2021/04/18 04:01:38;;;;;;;39.75;22.98;;;;;;;6.11;85.63;99024.77;2145371;83;21373;-83
2021/04/18 04:04:40;;;;;;;39.40;22.35;;;;;;;6.01;85.45;99028.38;2145292;83;21339;-84
2021/04/18 04:07:42;;;;;;;55.10;34.95;;;;;;;5.90;85.59;99031.50;2168188;82;21141;-84
2021/04/18 04:10:44;;;;;;;48.60;27.93;;;;;;;5.89;85.85;99038.93;2168254;82;21131;-82
2021/04/18 04:13:46;;;;;;;40.52;25.12;;;;;;;5.97;86.15;99040.37;2168251;82;21195;-82
2021/04/18 04:16:47;;;;;;;38.08;22.55;;;;;;;6.09;86.24;99031.09;2168129;82;21144;-82
2021/04/18 04:19:49;;;;;;;36.13;22.00;;;;;;;6.15;85.91;99033.13;2168174;82;21146;-83
2021/04/18 04:22:52;;;;;;;43.00;23.65;;;;;;;6.18;85.81;99031.05;2168092;82;21145;-82
2021/04/18 04:25:53;;;;;;;39.85;22.58;;;;;;;6.18;85.48;99029.75;2144866;83;21192;-83
2021/04/18 04:28:55;;;;;;;43.50;24.18;;;;;;;6.15;85.71;99026.63;2142704;83;21303;-83
2021/04/18 04:31:57;;;;;;;40.20;22.27;;;;;;;6.26;85.97;99031.15;2142833;83;21296;-83
2021/04/18 04:34:58;;;;;;;38.88;22.90;;;;;;;6.30;85.76;99036.88;2142584;83;21165;-83
2021/04/18 04:38:00;;;;;;;37.30;22.67;;;;;;;6.37;85.79;99041.84;2142890;83;22271;-83
2021/04/18 04:41:01;;;;;;;30.80;19.80;;;;;;;6.33;85.55;99043.59;2142892;83;21164;-84
2021/04/18 04:44:03;;;;;;;39.30;23.22;;;;;;;6.28;85.52;99042.22;2142416;83;21280;-84
2021/04/18 04:47:05;;;;;;;29.95;19.00;;;;;;;6.28;85.41;99046.60;2142541;83;21182;-84
2021/04/18 04:50:06;;;;;;;31.12;18.25;;;;;;;6.24;85.45;99046.09;2142575;83;21295;-84
2021/04/18 04:53:08;;;;;;;27.73;17.92;;;;;;;6.19;85.39;99053.48;2142534;83;21327;-83
2021/04/18 04:56:10;;;;;;;31.10;19.40;;;;;;;6.21;85.50;99045.53;2142541;83;21311;-83
2021/04/18 04:59:12;;;;;;;29.63;19.20;;;;;;;6.23;85.60;99049.65;2142714;83;21289;-84
2021/04/18 05:02:13;;;;;;;32.63;20.65;;;;;;;6.21;85.40;99053.34;2142564;83;21283;-84
2021/04/18 05:05:15;;;;;;;31.97;18.90;;;;;;;6.22;85.64;99051.10;2142796;83;21723;-84
2021/04/18 05:08:18;;;;;;;27.60;17.57;;;;;;;6.26;85.54;99055.03;2142623;83;21141;-82
2021/04/18 05:11:19;;;;;;;26.27;16.87;;;;;;;6.26;85.61;99052.44;2142518;83;21110;-83
2021/04/18 05:14:22;;;;;;;29.25;17.00;;;;;;;6.28;85.61;99053.92;2142519;83;21272;-84
2021/04/18 05:17:24;;;;;;;32.90;20.05;;;;;;;6.32;85.64;99053.66;2142852;83;21275;-83
2021/04/18 05:20:27;;;;;;;33.75;19.40;;;;;;;6.36;85.51;99051.91;2142799;83;21280;-84
2021/04/18 05:23:28;;;;;;;36.00;20.95;;;;;;;6.46;85.51;99057.06;2170960;81;21299;-82
2021/04/18 05:26:30;;;;;;;32.00;18.85;;;;;;;6.54;85.56;99048.87;2142952;83;21213;-83
2021/04/18 05:29:32;;;;;;;25.95;16.62;;;;;;;6.63;85.31;99058.06;2168139;82;21101;-83
2021/04/18 05:32:34;;;;;;;35.90;21.73;;;;;;;6.61;85.12;99066.51;2168329;82;21606;-83
2021/04/18 05:35:37;;;;;;;32.60;18.82;;;;;;;6.60;85.30;99063.09;2168443;82;21165;-82
2021/04/18 05:38:38;;;;;;;38.35;22.73;;;;;;;6.65;85.21;99056.95;2168356;82;21176;-83
2021/04/18 05:41:40;;;;;;;31.00;18.65;;;;;;;6.73;85.12;99067.45;2168389;82;21176;-84
2021/04/18 05:44:42;;;;;;;37.80;21.42;;;;;;;6.83;85.04;99061.70;2168406;82;22207;-83
2021/04/18 05:47:44;;;;;;;38.58;23.10;;;;;;;6.97;85.01;99058.27;2168618;82;21267;-82
2021/04/18 05:50:45;;;;;;;37.73;23.02;;;;;;;7.15;84.96;99057.79;2168514;82;21168;-84
2021/04/18 05:53:47;;;;;;;37.30;22.65;;;;;;;7.28;84.41;99056.09;2186682;81;21768;-83
2021/04/18 05:56:49;;;;;;;34.03;19.65;;;;;;;7.37;84.41;99064.31;2160314;82;21156;-83
2021/04/18 05:59:51;;;;;;;35.03;20.92;;;;;;;7.57;84.04;99063.65;2168704;82;21649;-82
2021/04/18 06:02:52;;;;;;;30.40;18.87;;;;;;;7.79;83.50;99063.66;2169053;82;21311;-84
2021/04/18 06:05:54;;;;;;;33.65;19.87;;;;;;;8.08;82.35;99073.28;2169259;82;21184;-84
2021/04/18 06:08:56;;;;;;;36.10;21.35;;;;;;;8.27;81.77;99066.53;2169735;82;21306;-86
2021/04/18 06:11:58;;;;;;;22.90;15.05;;;;;;;8.59;81.98;99068.14;2169077;82;21321;-84
2021/04/18 06:15:00;;;;;;;28.45;18.50;;;;;;;8.81;79.02;99065.78;2169095;82;21290;-84
2021/04/18 06:18:02;;;;;;;28.60;18.80;;;;;;;8.87;78.94;99074.78;2169419;82;21253;-85
2021/04/18 06:21:04;;;;;;;29.05;16.60;;;;;;;8.85;78.25;99074.09;2168927;82;21272;-85
2021/04/18 06:24:06;;;;;;;28.27;17.15;;;;;;;8.70;79.04;99081.74;2168613;82;21245;-84
2021/04/18 06:27:08;;;;;;;31.62;20.72;;;;;;;8.79;78.95;99083.41;2168261;82;21159;-86
2021/04/18 06:30:09;;;;;;;27.05;17.57;;;;;;;8.90;79.53;99074.94;2168317;82;21122;-85
2021/04/18 06:33:11;;;;;;;23.73;16.27;;;;;;;8.99;78.84;99076.59;2168343;81;21608;-83
2021/04/18 06:36:12;;;;;;;22.58;15.80;;;;;;;9.10;78.04;99076.27;2168552;82;21178;-83
2021/04/18 06:39:14;;;;;;;19.23;13.93;;;;;;;9.10;77.75;99083.62;2168214;82;21196;-85
2021/04/18 06:42:17;;;;;;;19.65;13.55;;;;;;;9.10;76.29;99084.11;2168545;82;21144;-86
2021/04/18 06:45:19;;;;;;;20.70;13.90;;;;;;;9.08;76.72;99080.36;2204580;80;21112;-84
2021/04/18 06:48:21;;;;;;;17.48;13.00;;;;;;;8.96;77.19;99082.11;2168589;82;21141;-84
2021/04/18 06:51:23;;;;;;;18.20;12.90;;;;;;;8.88;77.21;99091.26;2168435;82;21167;-84
2021/04/18 06:54:25;;;;;;;15.98;12.63;;;;;;;8.86;77.20;99084.87;2168532;82;21185;-84
2021/04/18 06:57:27;;;;;;;17.15;12.63;;;;;;;8.84;75.48;99092.86;2168257;82;21177;-84
2021/04/18 07:00:28;;;;;;;18.45;13.70;;;;;;;8.75;76.05;99085.98;2168454;82;21152;-82
2021/04/18 07:03:30;;;;;;;16.82;11.57;;;;;;;8.71;76.63;99089.91;2168337;82;21175;-84
2021/04/18 07:06:32;;;;;;;13.80;10.15;;;;;;;8.73;76.06;99088.43;2168485;82;21554;-84
2021/04/18 07:09:34;;;;;;;13.00;10.80;;;;;;;8.94;74.22;99078.85;2168343;82;21597;-85
2021/04/18 07:12:35;;;;;;;12.43;9.73;;;;;;;9.00;74.43;99080.34;2168430;82;21592;-85
2021/04/18 07:15:39;;;;;;;11.88;9.28;;;;;;;9.06;72.48;99088.85;2168889;82;21276;-85
2021/04/18 07:18:41;;;;;;;12.65;9.53;;;;;;;9.23;73.03;99086.24;2168599;82;21146;-86
2021/04/18 07:21:43;;;;;;;10.25;9.05;;;;;;;9.44;73.72;99080.56;2168553;81;21134;-84
2021/04/18 07:24:45;;;;;;;13.20;10.38;;;;;;;9.61;72.53;99082.20;2168296;82;21162;-83
2021/04/18 07:27:47;;;;;;;12.00;9.83;;;;;;;9.59;72.13;99084.13;2167459;81;21192;-84
2021/04/18 07:30:49;;;;;;;11.93;9.73;;;;;;;9.57;72.98;99080.88;2165582;82;21137;-87
2021/04/18 07:33:51;;;;;;;15.78;11.30;;;;;;;9.48;70.56;99074.83;2165845;82;21288;-91
2021/04/18 07:36:54;;;;;;;14.18;11.40;;;;;;;9.51;72.23;99078.44;2142711;83;21312;-87
2021/04/18 07:39:58;;;;;;;12.75;10.85;;;;;;;9.56;71.91;99087.90;2128999;83;21145;-88
2021/04/18 07:43:00;;;;;;;15.30;11.85;;;;;;;9.62;72.43;99080.72;2142486;83;21172;-87
2021/04/18 07:46:01;;;;;;;15.78;12.50;;;;;;;9.65;72.64;99086.92;2142462;83;21145;-88
2021/04/18 07:49:03;;;;;;;17.57;12.45;;;;;;;9.74;71.69;99081.69;2142727;83;21160;-85
2021/04/18 07:52:05;;;;;;;16.70;13.32;;;;;;;9.85;72.37;99090.48;2142826;83;21327;-89
2021/04/18 07:55:10;;;;;;;17.87;14.40;;;;;;;9.91;72.67;99094.58;2143094;83;21585;-86
2021/04/18 07:58:13;;;;;;;21.27;14.85;;;;;;;9.90;71.68;99089.52;2142834;83;21294;-90
2021/04/18 08:01:16;;;;;;;17.90;13.72;;;;;;;9.87;72.17;99091.13;2143001;83;21166;-89
2021/04/18 08:04:18;;;;;;;16.40;13.62;;;;;;;9.87;71.97;99094.56;2143084;83;21287;-89
2021/04/18 08:07:19;;;;;;;17.85;13.32;;;;;;;9.82;71.34;99094.27;2143226;83;21272;-89
2021/04/18 08:10:23;;;;;;;19.17;13.45;;;;;;;9.78;71.30;99096.86;2142687;83;21284;-89
2021/04/18 08:13:25;;;;;;;14.98;12.00;;;;;;;9.73;70.35;99097.87;2143410;83;21348;-87
2021/04/18 08:16:26;;;;;;;18.30;13.03;;;;;;;9.67;69.53;99094.09;2143941;83;21184;-86
2021/04/18 08:19:28;;;;;;;17.30;12.58;;;;;;;9.70;70.94;99095.59;2142431;83;21182;-87
2021/04/18 08:22:30;;;;;;;13.93;12.15;;;;;;;9.82;70.77;99092.95;2142802;83;21180;-88
2021/04/18 08:25:32;;;;;;;16.48;12.78;;;;;;;9.76;68.96;99092.30;2142454;83;21300;-86
2021/04/18 08:28:34;;;;;;;15.80;12.70;;;;;;;9.69;69.68;99092.63;2144244;83;21291;-86
2021/04/18 08:31:35;;;;;;;20.82;14.33;;;;;;;9.58;70.04;99100.31;2145163;83;21150;-86
2021/04/18 08:34:37;;;;;;;24.70;15.93;;;;;;;9.64;70.60;99096.23;2168524;82;21159;-86
2021/04/18 08:37:39;;;;;;;22.85;15.03;;;;;;;9.84;70.54;99100.14;2168506;82;21759;-85
2021/04/18 08:40:41;;;;;;;19.85;14.30;;;;;;;9.98;70.14;99098.66;2168385;82;21600;-84
2021/04/18 08:43:44;;;;;;;21.05;14.53;;;;;;;10.02;68.11;99101.75;2145030;83;21153;-85
2021/04/18 08:46:46;;;;;;;22.42;15.20;;;;;;;9.97;67.70;99095.72;2193364;81;21363;-86
2021/04/18 08:49:48;;;;;;;24.75;16.70;;;;;;;10.10;69.36;99100.43;2168243;82;21594;-87
2021/04/18 08:52:50;;;;;;;20.35;15.83;;;;;;;10.14;68.37;99096.48;2168121;82;21150;-87
2021/04/18 08:55:52;;;;;;;25.37;17.32;;;;;;;10.19;69.14;99099.42;2168376;82;21664;-87
2021/04/18 08:58:54;;;;;;;21.85;17.55;;;;;;;10.30;69.48;99098.28;2145601;83;21311;-86
2021/04/18 09:01:57;;;;;;;23.12;17.70;;;;;;;10.39;69.57;99095.47;2145120;83;21169;-85
2021/04/18 09:04:59;;;;;;;23.60;17.77;;;;;;;10.38;67.71;99099.08;2168584;82;21746;-87
2021/04/18 09:08:02;;;;;;;25.00;17.27;;;;;;;10.18;68.84;99099.11;2168396;82;21304;-84
2021/04/18 09:11:03;;;;;;;26.42;18.12;;;;;;;10.07;68.99;99098.97;2168223;82;21113;-83
2021/04/18 09:14:05;;;;;;;24.67;17.37;;;;;;;10.00;69.35;99095.88;2145019;83;21191;-88
2021/04/18 09:17:07;;;;;;;25.77;16.48;;;;;;;9.96;69.75;99101.42;2145117;83;21161;-82
2021/04/18 09:20:10;;;;;;;19.65;14.68;;;;;;;9.89;68.46;99101.78;2145411;83;21287;-83
2021/04/18 09:23:12;;;;;;;19.95;13.38;;;;;;;9.95;69.10;99098.48;2145339;83;21157;-82
2021/04/18 09:26:14;;;;;;;21.27;14.15;;;;;;;10.20;68.44;99091.90;2168062;82;21144;-82
2021/04/18 09:29:15;;;;;;;21.02;14.63;;;;;;;10.42;67.70;99091.69;2168236;81;21163;-84
2021/04/18 09:32:17;;;;;;;19.67;15.58;;;;;;;10.57;67.77;99093.93;2168392;82;21581;-83
2021/04/18 09:35:20;;;;;;;16.67;13.35;;;;;;;10.65;67.88;99099.63;2168248;82;21140;-85
2021/04/18 09:38:22;;;;;;;17.25;13.08;;;;;;;10.76;67.21;99092.70;2168364;82;21136;-82
2021/04/18 09:41:23;;;;;;;17.35;13.75;;;;;;;10.88;66.38;99089.19;2168130;82;21150;-83
2021/04/18 09:44:29;;;;;;;17.62;13.93;;;;;;;11.00;66.14;99094.37;2168277;82;21156;-83
2021/04/18 09:47:32;;;;;;;14.20;12.43;;;;;;;10.98;61.40;99097.18;2145204;83;21565;-83
2021/04/18 09:50:34;;;;;;;17.42;13.45;;;;;;;11.02;65.11;99089.28;2171669;81;21606;-83
2021/04/18 09:53:36;;;;;;;15.30;13.58;;;;;;;11.18;64.76;99094.11;2145067;83;21196;-82
2021/04/18 09:56:38;;;;;;;18.80;13.70;;;;;;;11.32;65.49;99096.77;2145197;83;21177;-83
2021/04/18 09:59:40;;;;;;;17.07;13.40;;;;;;;11.33;64.03;99097.59;2145201;83;21711;-83
2021/04/18 10:02:43;;;;;;;16.35;13.05;;;;;;;11.36;64.13;99098.57;2145224;83;21186;-83
2021/04/18 10:05:45;;;;;;;15.55;13.58;;;;;;;11.33;62.25;99093.66;2145015;83;21322;-85
2021/04/18 10:08:48;;;;;;;14.33;12.75;;;;;;;11.37;63.15;99096.27;2145009;83;21574;-84
2021/04/18 10:11:50;;;;;;;15.28;12.50;;;;;;;11.30;62.28;99098.77;2146761;82;21153;-83
2021/04/18 10:14:51;;;;;;;16.35;13.15;;;;;;;11.30;62.28;99098.77;2166370;82;21556;-84
2021/04/18 10:17:53;;;;;;;15.20;12.70;;;;;;;11.18;62.84;99097.55;2165374;82;21622;-83
2021/04/18 10:20:54;;;;;;;16.85;13.28;;;;;;;11.23;63.15;99093.08;2174480;81;21154;-84
2021/04/18 10:23:56;;;;;;;16.80;14.38;;;;;;;11.33;63.47;99095.78;2168628;82;21274;-84
2021/04/18 10:26:58;;;;;;;20.70;15.70;;;;;;;11.52;63.78;99094.52;2168390;82;21557;-82
2021/04/18 10:29:59;;;;;;;19.52;15.72;;;;;;;11.85;63.59;99083.77;2156253;82;21738;-84
2021/04/18 10:33:01;;;;;;;19.10;15.68;;;;;;;12.10;63.44;99083.84;2143866;83;21161;-84
2021/04/18 10:36:04;;;;;;;24.25;17.50;;;;;;;12.30;62.84;99074.11;2147942;83;21719;-83
2021/04/18 10:39:06;;;;;;;17.73;14.58;;;;;;;12.51;62.19;99089.44;2148080;83;21274;-84
2021/04/18 10:42:07;;;;;;;14.25;12.33;;;;;;;12.50;60.18;99087.00;2128574;83;21129;-84
2021/04/18 10:45:09;;;;;;;17.62;13.65;;;;;;;12.39;61.08;99079.59;2149623;82;21554;-83
2021/04/18 10:48:11;;;;;;;17.85;13.83;;;;;;;12.39;61.08;99079.59;2166334;82;21148;-83
2021/04/18 10:51:14;;;;;;;17.50;14.65;;;;;;;12.32;60.60;99080.80;2145114;83;21103;-83
2021/04/18 10:54:16;;;;;;;15.38;13.65;;;;;;;12.30;60.84;99076.73;2169003;82;21153;-84
2021/04/18 10:57:18;;;;;;;15.25;12.55;;;;;;;12.43;61.06;99083.46;2165864;82;21792;-84
2021/04/18 11:00:20;;;;;;;13.65;11.88;;;;;;;12.43;61.06;99083.46;2165522;82;21301;-84
2021/04/18 11:03:22;;;;;;;13.83;11.97;;;;;;;12.44;59.88;99079.87;2165959;82;21139;-83
2021/04/18 11:06:24;;;;;;;13.50;11.48;;;;;;;12.59;60.06;99081.95;2164900;82;21268;-82
2021/04/18 11:09:26;;;;;;;12.40;11.03;;;;;;;12.71;59.98;99084.45;2140757;83;21257;-86
2021/04/18 11:12:27;;;;;;;13.03;11.60;;;;;;;12.79;59.10;99083.00;2146731;81;21117;-84
2021/04/18 11:15:29;;;;;;;15.18;12.20;;;;;;;12.98;59.88;99076.84;2144686;83;21254;-84
2021/04/18 11:18:31;;;;;;;13.48;11.40;;;;;;;13.22;59.41;99081.78;2157473;82;21146;-84
2021/04/18 11:21:33;;;;;;;14.13;11.35;;;;;;;13.43;59.23;99080.96;2167631;82;21613;-82
2021/04/18 11:24:34;;;;;;;16.32;12.82;;;;;;;13.57;58.07;99072.20;2168239;82;21178;-83
2021/04/18 11:27:36;;;;;;;12.70;11.38;;;;;;;13.63;58.41;99071.45;2161298;81;21148;-85
2021/04/18 11:30:38;;;;;;;13.53;11.88;;;;;;;13.63;58.14;99068.81;2127473;81;21190;-88
2021/04/18 11:33:40;;;;;;;11.18;9.98;;;;;;;13.60;57.31;99062.59;2118649;84;21140;-88
2021/04/18 11:36:41;;;;;;;11.68;10.48;;;;;;;13.50;57.90;99075.77;2085136;84;21628;-87
2021/04/18 11:39:43;;;;;;;13.60;10.88;;;;;;;13.33;58.12;99074.70;2121612;84;21177;-87
2021/04/18 11:42:45;;;;;;;13.28;10.72;;;;;;;13.26;58.69;99072.53;2121515;84;21169;-87
2021/04/18 11:45:47;;;;;;;11.90;10.70;;;;;;;13.22;58.08;99069.95;2126498;82;21169;-85
2021/04/18 11:48:49;;;;;;;11.63;10.48;;;;;;;13.21;58.25;99068.33;2122614;84;21173;-87
2021/04/18 11:51:50;;;;;;;16.70;10.93;;;;;;;13.23;57.63;99067.63;2123464;84;21179;-87
2021/04/18 11:54:52;;;;;;;13.00;11.00;;;;;;;13.27;57.34;99070.22;2123773;84;21567;-87
2021/04/18 11:57:53;;;;;;;14.25;11.60;;;;;;;13.30;57.73;99070.33;2121817;84;21153;-86
2021/04/18 12:00:55;;;;;;;12.58;11.25;;;;;;;13.24;57.48;99071.08;2121709;84;21209;-88
2021/04/18 12:03:56;;;;;;;12.30;10.23;;;;;;;13.21;57.55;99074.09;2122891;83;21159;-87
2021/04/18 12:06:59;;;;;;;13.32;11.03;;;;;;;13.18;57.30;99071.31;2124965;84;21187;-86
2021/04/18 12:10:01;;;;;;;12.70;10.50;;;;;;;13.09;57.01;99075.06;2124395;84;21197;-87
2021/04/18 12:13:03;;;;;;;10.08;9.08;;;;;;;13.09;56.98;99072.44;2123998;82;21174;-86
2021/04/18 12:16:05;;;;;;;12.45;10.53;;;;;;;13.13;57.40;99064.97;2122837;84;21201;-86
2021/04/18 12:19:07;;;;;;;13.72;10.25;;;;;;;13.33;56.58;99060.74;2124961;84;21199;-87
2021/04/18 12:22:09;;;;;;;8.20;7.35;;;;;;;13.40;57.10;99063.44;2123255;84;21194;-86
2021/04/18 12:25:10;;;;;;;7.55;6.30;;;;;;;13.36;54.50;99066.45;2123167;84;21185;-86
2021/04/18 12:28:12;;;;;;;8.15;7.30;;;;;;;13.37;53.85;99062.02;2124897;81;22156;-87
2021/04/18 12:31:14;;;;;;;7.17;6.47;;;;;;;13.36;53.87;99060.39;2166913;82;21642;-88
2021/04/18 12:34:16;;;;;;;7.30;6.47;;;;;;;13.41;52.81;99054.04;2167292;82;21581;-88
2021/04/18 12:37:17;;;;;;;7.30;6.70;;;;;;;13.49;52.82;99049.16;2168039;82;21723;-88
2021/04/18 12:40:19;;;;;;;10.05;9.05;;;;;;;13.47;53.74;99049.85;2167732;82;21193;-88
2021/04/18 12:43:21;;;;;;;7.42;6.70;;;;;;;13.51;54.67;99053.72;2167947;82;21306;-87
2021/04/18 12:46:22;;;;;;;8.90;8.10;;;;;;;13.47;54.04;99049.34;2168034;82;21179;-87
2021/04/18 12:49:24;;;;;;;9.30;8.40;;;;;;;13.47;54.32;99039.33;2167934;82;21177;-87
2021/04/18 12:52:26;;;;;;;7.87;7.12;;;;;;;13.54;53.77;99041.02;2167925;82;21839;-87
2021/04/18 12:55:28;;;;;;;7.87;7.08;;;;;;;13.53;53.51;99039.39;2167729;82;21284;-88
2021/04/18 12:58:29;;;;;;;7.75;6.95;;;;;;;13.44;53.32;99036.59;2168001;82;21157;-87
2021/04/18 13:01:31;;;;;;;7.80;7.10;;;;;;;13.38;52.67;99032.89;2167852;82;21300;-88
2021/04/18 13:04:33;;;;;;;6.62;5.95;;;;;;;13.29;53.06;99037.16;2169221;82;21300;-88
2021/04/18 13:07:35;;;;;;;8.03;6.72;;;;;;;13.34;51.76;99036.06;2168891;82;21717;-87
2021/04/18 13:10:37;;;;;;;7.25;6.62;;;;;;;13.17;52.56;99033.38;2167957;82;21578;-88
2021/04/18 13:13:40;;;;;;;8.13;7.33;;;;;;;13.07;52.23;99039.77;2168028;82;21181;-87
2021/04/18 13:16:42;;;;;;;8.35;6.65;;;;;;;12.99;52.64;99040.39;2167878;82;22241;-88
2021/04/18 13:19:44;;;;;;;7.70;7.00;;;;;;;12.97;52.41;99031.84;2167697;82;21295;-87
2021/04/18 13:22:47;;;;;;;7.35;6.75;;;;;;;12.98;52.44;99031.66;2168225;82;21300;-87
2021/04/18 13:25:49;;;;;;;7.72;7.03;;;;;;;13.10;53.09;99017.54;2167925;82;21604;-87
2021/04/18 13:28:51;;;;;;;7.45;6.75;;;;;;;13.22;53.03;99019.19;2168422;81;21307;-87
2021/04/18 13:31:53;;;;;;;7.47;6.78;;;;;;;13.30;52.12;99015.11;2167830;82;21344;-87
2021/04/18 13:34:55;;;;;;;8.48;7.62;;;;;;;13.19;52.16;99020.38;2168005;82;21193;-88
2021/04/18 13:37:57;;;;;;;8.35;7.60;;;;;;;13.17;53.11;99029.44;2167651;82;21744;-89
2021/04/18 13:40:58;;;;;;;7.95;7.15;;;;;;;13.20;52.95;99023.32;2167723;82;21348;-89
2021/04/18 13:44:00;;;;;;;7.33;6.62;;;;;;;13.28;52.05;99028.45;2167921;82;21312;-88
2021/04/18 13:47:02;;;;;;;7.83;7.03;;;;;;;13.35;52.16;99023.26;2168059;82;21146;-87
2021/04/18 13:50:04;;;;;;;7.08;6.37;;;;;;;13.44;52.12;99022.12;2167703;82;21335;-86
2021/04/18 13:53:09;;;;;;;8.13;7.40;;;;;;;13.40;52.21;99017.41;2167759;82;21353;-90
2021/04/18 13:56:10;;;;;;;8.13;7.17;;;;;;;13.32;52.82;99011.78;2168754;82;22213;-90
2021/04/18 13:59:12;;;;;;;10.58;7.92;;;;;;;13.30;53.14;99013.30;2168169;82;21613;-89
2021/04/18 14:02:14;;;;;;;8.08;7.28;;;;;;;13.25;52.60;99013.53;2168345;82;21162;-90
2021/04/18 14:05:16;;;;;;;7.12;6.42;;;;;;;13.19;51.70;99011.18;2167976;82;21874;-88